Time;durP1;ratioP1;P1;durP2;ratioP2;P2;SDS_P1;SDS_P2;PMS_P1;PMS_P2;Temp;Humidity;BMP_temperature;BMP_pressure;BME280_temperature;BME280_humidity;BME280_pressure;Samples;Min_cycle;Max_cycle;Signal;HPM_P1;HPM_P2
2023/12/07 03:41:18;;;;;;;23.53;21.33;;;0.60;99.90;;;;;;613218;22;20723;-81
2023/12/07 03:43:45;;;;;;;25.43;22.87;;;0.60;99.90;;;;;;5032310;28;20450;-79
2023/12/07 03:46:12;;;;;;;21.73;19.83;;;0.60;99.90;;;;;;5044245;28;20486;-79
2023/12/07 03:48:39;;;;;;;23.50;21.47;;;0.50;99.90;;;;;;5014437;28;20449;-81
2023/12/07 03:51:37;;;;;;;24.67;22.23;;;0.50;99.90;;;;;;5021559;28;20457;-84
2023/12/07 03:54:10;;;;;;;23.40;21.43;;;0.50;99.90;;;;;;5032084;28;20924;-83
2023/12/07 04:11:46;;;;;;;21.80;19.90;;;0.40;99.90;;;;;;4916449;29;20487;-82
2023/12/07 04:14:19;;;;;;;23.93;21.60;;;0.40;99.90;;;;;;4982781;28;20474;-84
2023/12/07 04:16:52;;;;;;;23.40;21.20;;;0.30;99.90;;;;;;5014841;28;20477;-83
2023/12/07 05:05:36;;;;;;;20.97;18.77;;;0.30;99.90;;;;;;4899470;28;20470;-81
2023/12/07 05:12:37;;;;;;;;;;;;;;;;;;;;;
2023/12/07 05:16:23;;;;;;;;;;;;;;;;;;;;;
2023/12/07 05:20:02;;;;;;;19.80;18.27;;;0.20;99.90;;;;;;4956267;28;20457;-81
2023/12/07 05:26:32;;;;;;;19.63;18.00;;;0.10;99.90;;;;;;4984711;28;20945;-81
2023/12/07 05:29:52;;;;;;;19.10;17.80;;;0.10;99.90;;;;;;4902044;29;20574;-81
2023/12/07 05:35:41;;;;;;;18.13;16.83;;;0.00;99.90;;;;;;4992960;28;20502;-81
2023/12/07 05:38:47;;;;;;;20.50;18.90;;;0.10;99.90;;;;;;4975431;28;20438;-81
2023/12/07 05:41:50;;;;;;;18.17;16.87;;;0.10;99.90;;;;;;5047895;28;20205;-80
2023/12/07 05:44:32;;;;;;;19.33;17.93;;;0.00;99.90;;;;;;5031721;28;20527;-81
2023/12/07 05:47:00;;;;;;;17.93;16.40;;;-0.10;99.90;;;;;;5062176;28;20922;-80
2023/12/07 05:49:27;;;;;;;19.30;17.70;;;-0.10;99.90;;;;;;5048968;28;20455;-80
2023/12/07 05:51:54;;;;;;;19.60;18.10;;;-0.10;99.90;;;;;;5051009;28;20858;-80
2023/12/07 05:54:57;;;;;;;18.73;17.33;;;-0.20;99.90;;;;;;5049100;28;20469;-81
2023/12/07 05:57:26;;;;;;;19.30;17.70;;;-0.10;99.90;;;;;;5047271;28;20949;-81
2023/12/07 05:59:53;;;;;;;18.73;17.27;;;-0.20;99.90;;;;;;5037208;28;20894;-80
2023/12/07 06:02:22;;;;;;;18.73;17.33;;;-0.30;99.90;;;;;;5042863;28;20535;-80
2023/12/07 06:04:49;;;;;;;18.60;17.20;;;-0.20;99.90;;;;;;5046196;28;20464;-81
2023/12/07 06:07:19;;;;;;;19.43;17.93;;;-0.30;99.90;;;;;;5046462;28;20455;-80
2023/12/07 06:09:46;;;;;;;19.23;17.87;;;-0.30;99.90;;;;;;5043553;28;20531;-79
2023/12/07 06:12:13;;;;;;;20.40;18.80;;;-0.40;99.90;;;;;;5050132;28;20829;-80
2023/12/07 06:14:40;;;;;;;18.80;17.30;;;-0.40;99.90;;;;;;5050256;28;20460;-81
2023/12/07 06:17:08;;;;;;;19.23;17.83;;;-0.40;99.90;;;;;;5031975;28;20915;-81
2023/12/07 06:19:36;;;;;;;18.77;17.37;;;-0.50;99.90;;;;;;5037317;28;20493;-81
2023/12/07 06:22:03;;;;;;;19.10;17.53;;;-0.50;99.90;;;;;;5037082;28;20836;-81
2023/12/07 06:24:32;;;;;;;18.93;17.33;;;-0.50;99.90;;;;;;5057980;28;20478;-81
2023/12/07 06:27:04;;;;;;;19.10;17.70;;;-0.60;99.90;;;;;;5050690;28;20478;-81
2023/12/07 06:29:34;;;;;;;18.93;17.57;;;-0.60;99.90;;;;;;5042695;28;20489;-81
2023/12/07 06:32:10;;;;;;;19.40;17.80;;;-0.60;99.90;;;;;;5042470;28;20455;-83
2023/12/07 06:34:42;;;;;;;19.00;17.60;;;-0.60;99.90;;;;;;5031526;28;21111;-82
2023/12/07 06:37:12;;;;;;;19.40;17.80;;;-0.60;99.90;;;;;;5044570;28;20476;-81
2023/12/07 06:39:39;;;;;;;20.03;18.50;;;-0.70;99.90;;;;;;5048527;28;20448;-80
2023/12/07 06:42:15;;;;;;;18.80;17.23;;;-0.70;99.90;;;;;;5065319;28;20507;-81
2023/12/07 06:44:53;;;;;;;19.13;17.73;;;-0.70;99.90;;;;;;5027560;28;20464;-81
2023/12/07 06:47:42;;;;;;;19.90;18.30;;;-0.70;99.90;;;;;;5041646;28;20451;-81
2023/12/07 06:50:22;;;;;;;19.53;17.93;;;-0.80;99.90;;;;;;5034643;28;20440;-81
2023/12/07 06:52:48;;;;;;;20.50;18.80;;;-0.80;99.90;;;;;;5056790;28;20529;-80
2023/12/07 06:55:15;;;;;;;19.63;18.03;;;-0.90;99.90;;;;;;5056001;28;20460;-82
2023/12/07 06:57:42;;;;;;;19.33;17.83;;;-0.90;99.90;;;;;;5052669;28;20454;-81
2023/12/07 07:00:11;;;;;;;18.53;17.03;;;-0.90;99.90;;;;;;5045372;28;20443;-82
2023/12/07 07:02:38;;;;;;;19.40;17.83;;;-0.90;99.90;;;;;;5044204;28;20430;-81
2023/12/07 07:05:06;;;;;;;20.43;18.77;;;-0.90;99.90;;;;;;5046985;28;20477;-82
2023/12/07 07:07:34;;;;;;;20.90;19.10;;;-0.90;99.90;;;;;;5035923;28;20450;-82
2023/12/07 07:10:02;;;;;;;20.23;18.53;;;-0.90;99.90;;;;;;5044515;28;20452;-81
2023/12/07 07:12:29;;;;;;;20.63;18.87;;;-0.90;99.90;;;;;;5036452;28;20500;-81
2023/12/07 07:14:56;;;;;;;21.63;19.73;;;-0.90;99.90;;;;;;5054776;28;20457;-80
2023/12/07 07:17:23;;;;;;;21.07;19.37;;;-0.90;99.90;;;;;;5057199;28;20519;-80
2023/12/07 07:19:49;;;;;;;22.43;20.43;;;-0.90;99.90;;;;;;5049305;28;20439;-81
2023/12/07 07:22:16;;;;;;;24.00;21.80;;;-0.90;99.90;;;;;;5033215;28;20890;-81
2023/12/07 07:24:44;;;;;;;23.80;21.70;;;-0.90;99.90;;;;;;5047586;28;20466;-81
2023/12/07 07:27:11;;;;;;;24.20;22.00;;;-0.90;99.90;;;;;;5031070;28;20445;-80
2023/12/07 07:29:38;;;;;;;22.73;20.60;;;-1.00;99.90;;;;;;5035590;28;20443;-81
2023/12/07 07:32:05;;;;;;;24.87;22.30;;;-1.00;99.90;;;;;;5039474;28;20501;-81
2023/12/07 07:34:32;;;;;;;25.83;23.30;;;-1.00;99.90;;;;;;5053413;28;20458;-81
2023/12/07 07:37:02;;;;;;;26.17;23.67;;;-1.00;99.90;;;;;;5030736;28;20466;-84
2023/12/07 07:39:29;;;;;;;25.13;22.77;;;-1.00;99.90;;;;;;5050247;28;20515;-82
2023/12/07 07:41:58;;;;;;;25.57;23.20;;;-1.00;99.90;;;;;;5051220;28;20438;-81
2023/12/07 07:44:24;;;;;;;27.48;25.17;;;-1.00;99.90;;;;;;5032172;28;20523;-81
2023/12/07 07:46:51;;;;;;;25.10;22.70;;;-0.90;99.90;;;;;;5035529;28;20201;-82
2023/12/07 07:49:18;;;;;;;24.30;22.00;;;-0.80;99.90;;;;;;5047660;28;20442;-81
2023/12/07 07:51:45;;;;;;;25.93;23.67;;;-0.70;99.90;;;;;;5053136;28;20835;-81
2023/12/07 07:54:12;;;;;;;25.13;22.93;;;-0.60;99.90;;;;;;5061090;28;20987;-82
2023/12/07 07:56:39;;;;;;;25.13;22.92;;;-0.50;99.90;;;;;;5050098;28;20455;-81
2023/12/07 07:59:07;;;;;;;25.65;23.65;;;-0.40;99.90;;;;;;5028773;28;20451;-81
2023/12/07 08:01:34;;;;;;;23.07;21.07;;;-0.30;99.90;;;;;;5048146;28;20602;-82
2023/12/07 08:04:01;;;;;;;24.17;21.90;;;-0.20;99.90;;;;;;5035074;28;20469;-81
2023/12/07 08:06:28;;;;;;;23.20;21.20;;;-0.20;99.90;;;;;;5039958;28;20961;-81
2023/12/07 08:08:55;;;;;;;22.87;21.03;;;-0.10;99.90;;;;;;5052098;28;20499;-81
2023/12/07 08:11:21;;;;;;;21.80;20.03;;;0.10;99.90;;;;;;5050635;28;20451;-82
2023/12/07 08:13:50;;;;;;;21.40;19.67;;;0.30;99.90;;;;;;5039041;28;20447;-82
2023/12/07 08:16:18;;;;;;;20.10;18.50;;;0.40;99.90;;;;;;5052617;28;20581;-81
2023/12/07 08:18:46;;;;;;;20.77;19.10;;;0.40;99.90;;;;;;5053599;28;20444;-82
2023/12/07 08:21:20;;;;;;;20.30;18.60;;;0.60;99.90;;;;;;5043292;28;20980;-81
2023/12/07 08:23:47;;;;;;;19.60;17.90;;;0.60;99.90;;;;;;5029755;28;20521;-82
2023/12/07 08:26:15;;;;;;;18.33;16.83;;;0.80;99.90;;;;;;5034869;28;20612;-82
2023/12/07 08:28:42;;;;;;;18.50;17.03;;;1.00;99.90;;;;;;5035899;28;20440;-82
2023/12/07 08:31:10;;;;;;;18.27;16.87;;;1.10;99.90;;;;;;5038730;28;20195;-82
2023/12/07 08:33:40;;;;;;;19.33;17.73;;;1.30;99.90;;;;;;5042379;28;20206;-81
2023/12/07 08:36:10;;;;;;;18.83;17.17;;;1.30;99.90;;;;;;5034840;28;20211;-82
2023/12/07 08:38:37;;;;;;;18.60;17.10;;;1.40;99.90;;;;;;5063309;28;20213;-82
2023/12/07 08:41:05;;;;;;;19.30;17.80;;;1.40;99.90;;;;;;5040514;28;20507;-83
2023/12/07 08:43:31;;;;;;;19.57;17.87;;;1.40;99.90;;;;;;5036650;28;20195;-83
2023/12/07 08:45:58;;;;;;;19.73;18.30;;;1.40;99.90;;;;;;5028926;28;20433;-82
2023/12/07 08:48:27;;;;;;;18.83;17.33;;;1.40;99.90;;;;;;5039466;28;20241;-84
2023/12/07 08:50:56;;;;;;;19.33;17.83;;;1.50;99.90;;;;;;5040385;28;20218;-84
2023/12/07 08:53:26;;;;;;;21.00;19.20;;;1.50;99.90;;;;;;5045799;28;20412;-84
2023/12/07 08:55:54;;;;;;;20.00;18.40;;;1.50;99.90;;;;;;5039003;28;20586;-84
2023/12/07 08:58:21;;;;;;;18.43;17.03;;;1.40;99.90;;;;;;5043057;28;20204;-84
2023/12/07 09:00:48;;;;;;;19.47;17.90;;;1.40;99.90;;;;;;5033812;28;20190;-84
2023/12/07 09:03:15;;;;;;;19.47;17.97;;;1.40;99.90;;;;;;5045963;28;20298;-85
2023/12/07 09:05:42;;;;;;;19.83;18.23;;;1.40;99.90;;;;;;5041453;28;20226;-85
2023/12/07 09:08:10;;;;;;;20.90;19.10;;;1.40;99.90;;;;;;5047811;28;20214;-84
2023/12/07 09:10:45;;;;;;;19.77;18.17;;;1.30;99.90;;;;;;5039230;28;20806;-82
2023/12/07 09:13:17;;;;;;;20.80;19.17;;;1.20;99.90;;;;;;5046923;28;20199;-82
2023/12/07 09:23:13;;;;;;;;;;;;;;;;;;;;;
2023/12/07 09:25:58;;;;;;;19.97;18.47;;;1.30;99.90;;;;;;5050689;28;20743;-82
2023/12/07 09:29:05;;;;;;;20.33;18.73;;;1.30;99.90;;;;;;5041410;28;20441;-82
2023/12/07 09:32:09;;;;;;;20.07;18.37;;;1.30;99.90;;;;;;5031680;28;20195;-82
2023/12/07 09:34:43;;;;;;;21.13;19.33;;;1.20;99.90;;;;;;4993075;28;20300;-85
2023/12/07 09:37:10;;;;;;;20.50;18.90;;;1.30;99.90;;;;;;4980800;28;20465;-85
2023/12/07 09:39:41;;;;;;;20.47;18.77;;;1.30;99.90;;;;;;5029012;28;20210;-85
2023/12/07 09:42:09;;;;;;;21.10;19.40;;;1.40;99.90;;;;;;5040905;28;20236;-85
2023/12/07 09:44:36;;;;;;;20.20;18.60;;;1.40;99.90;;;;;;5056428;28;20457;-83
2023/12/07 09:47:03;;;;;;;20.63;18.67;;;1.50;99.90;;;;;;5046112;28;20199;-83
2023/12/07 09:49:31;;;;;;;21.97;20.10;;;1.50;99.90;;;;;;5057699;28;20198;-83
2023/12/07 09:52:00;;;;;;;21.13;19.33;;;1.60;99.90;;;;;;5034053;28;20615;-84
2023/12/07 09:54:29;;;;;;;21.03;19.43;;;1.60;99.90;;;;;;5042769;28;20255;-83
2023/12/07 09:56:56;;;;;;;20.87;19.27;;;1.60;99.90;;;;;;5029640;28;20270;-84
2023/12/07 09:59:25;;;;;;;20.33;18.73;;;1.50;99.90;;;;;;5054586;28;20451;-79
2023/12/07 10:01:51;;;;;;;20.50;18.80;;;1.50;99.90;;;;;;5047039;28;21031;-79
2023/12/07 10:04:20;;;;;;;20.60;18.97;;;1.50;99.90;;;;;;5038421;28;20472;-79
2023/12/07 10:06:49;;;;;;;21.30;19.47;;;1.60;99.90;;;;;;5033726;28;20318;-79
2023/12/07 10:09:16;;;;;;;20.73;19.03;;;1.60;99.90;;;;;;5039041;28;20445;-79
2023/12/07 10:11:44;;;;;;;20.53;18.83;;;1.60;99.90;;;;;;5046480;28;20433;-80
2023/12/07 10:14:11;;;;;;;20.73;19.13;;;1.60;99.90;;;;;;5031585;28;20231;-80
2023/12/07 10:16:39;;;;;;;20.13;18.53;;;1.60;99.90;;;;;;5033680;28;20219;-79
2023/12/07 10:19:17;;;;;;;22.20;20.33;;;1.70;99.90;;;;;;5039089;28;20204;-79
2023/12/07 10:21:44;;;;;;;21.80;19.77;;;1.70;99.90;;;;;;5036627;28;20203;-79
2023/12/07 10:24:11;;;;;;;20.80;19.20;;;1.60;99.90;;;;;;5038519;28;20218;-79
2023/12/07 10:26:38;;;;;;;19.80;18.10;;;1.70;99.90;;;;;;5038118;28;20199;-80
2023/12/07 10:29:06;;;;;;;21.10;19.40;;;1.70;99.90;;;;;;5037494;28;20449;-79
2023/12/07 10:31:33;;;;;;;20.40;18.70;;;1.80;99.90;;;;;;5040299;28;20272;-79
2023/12/07 10:34:01;;;;;;;20.70;19.00;;;1.90;99.90;;;;;;5056416;28;20215;-79
2023/12/07 10:36:28;;;;;;;21.53;19.50;;;1.90;99.90;;;;;;5037928;28;20226;-80
2023/12/07 10:38:55;;;;;;;23.20;21.10;;;1.90;99.90;;;;;;5055882;28;20248;-79
2023/12/07 10:41:24;;;;;;;22.27;20.50;;;1.80;99.90;;;;;;5045564;28;20206;-79
2023/12/07 10:43:54;;;;;;;22.40;20.50;;;1.80;99.90;;;;;;5049379;28;20487;-80
2023/12/07 10:46:24;;;;;;;21.90;20.10;;;1.90;99.90;;;;;;5034910;28;20241;-82
2023/12/07 10:49:04;;;;;;;21.10;19.40;;;2.00;99.90;;;;;;5032519;28;20203;-80
2023/12/07 10:51:46;;;;;;;21.77;19.87;;;2.00;99.90;;;;;;5040792;28;20211;-84
2023/12/07 10:54:39;;;;;;;22.10;20.30;;;2.00;99.90;;;;;;5040332;28;20238;-83
2023/12/07 10:57:08;;;;;;;22.65;20.67;;;2.10;99.90;;;;;;5037113;28;20886;-79
2023/12/07 10:59:37;;;;;;;23.20;21.20;;;2.10;99.90;;;;;;5054382;28;20199;-80
2023/12/07 11:02:06;;;;;;;21.23;19.53;;;2.10;99.90;;;;;;5039519;28;20200;-80
2023/12/07 11:04:33;;;;;;;22.90;20.90;;;2.10;99.90;;;;;;5055202;28;20223;-80
2023/12/07 11:07:10;;;;;;;21.80;19.90;;;2.20;99.90;;;;;;5026002;28;20617;-79
2023/12/07 11:09:43;;;;;;;23.90;21.70;;;2.20;99.90;;;;;;5048901;28;20586;-80
2023/12/07 11:12:17;;;;;;;22.20;20.40;;;2.20;99.90;;;;;;5035948;28;20585;-81
2023/12/07 11:14:44;;;;;;;21.27;19.53;;;2.30;99.90;;;;;;5037284;28;20223;-80
2023/12/07 11:17:11;;;;;;;21.30;19.63;;;2.30;99.90;;;;;;5055091;28;20717;-80
2023/12/07 11:19:45;;;;;;;21.13;19.43;;;2.40;99.90;;;;;;5051130;28;20741;-80
2023/12/07 11:22:14;;;;;;;21.07;19.37;;;2.40;99.90;;;;;;5054915;28;20663;-79
2023/12/07 11:24:53;;;;;;;21.73;19.83;;;2.50;99.90;;;;;;5037350;28;20215;-80
2023/12/07 11:27:20;;;;;;;21.43;19.73;;;2.60;99.90;;;;;;5036620;28;20679;-79
2023/12/07 11:29:48;;;;;;;21.57;19.77;;;2.60;99.90;;;;;;5049002;28;20592;-80
2023/12/07 11:32:15;;;;;;;21.23;19.50;;;2.70;99.90;;;;;;5057769;28;20195;-80
2023/12/07 11:34:43;;;;;;;22.13;20.33;;;2.70;99.90;;;;;;5046898;28;20222;-79
2023/12/07 11:37:16;;;;;;;22.03;20.33;;;2.80;99.90;;;;;;5051945;28;20231;-80
2023/12/07 11:39:45;;;;;;;21.20;19.30;;;2.90;99.90;;;;;;5031426;28;20227;-80
2023/12/07 11:42:13;;;;;;;22.30;20.50;;;2.90;99.90;;;;;;5049684;28;20217;-80
2023/12/07 11:44:41;;;;;;;21.90;20.00;;;3.00;99.90;;;;;;5049492;28;20223;-79
2023/12/07 11:47:09;;;;;;;22.03;20.20;;;3.10;99.90;;;;;;5035827;28;20187;-80
2023/12/07 11:49:36;;;;;;;21.37;19.57;;;3.20;99.90;;;;;;5028040;28;20203;-79
2023/12/07 11:52:15;;;;;;;20.30;18.70;;;3.30;99.90;;;;;;5043584;28;20200;-80
2023/12/07 11:54:46;;;;;;;20.87;19.07;;;3.30;99.90;;;;;;5034731;28;20652;-80
2023/12/07 11:57:14;;;;;;;20.93;19.33;;;3.40;99.90;;;;;;5044854;28;20258;-80
2023/12/07 11:59:41;;;;;;;20.27;18.57;;;3.50;99.90;;;;;;5060283;28;20188;-79
2023/12/07 12:02:08;;;;;;;19.57;18.10;;;3.60;99.90;;;;;;5055658;28;20620;-79
2023/12/07 12:04:35;;;;;;;20.07;18.57;;;3.60;99.90;;;;;;5055959;28;20250;-80
2023/12/07 12:07:01;;;;;;;19.77;18.23;;;3.70;99.90;;;;;;5040672;28;20211;-79
2023/12/07 12:09:29;;;;;;;18.67;17.13;;;3.70;99.90;;;;;;5053281;28;20209;-80
2023/12/07 12:12:00;;;;;;;19.43;17.93;;;3.70;99.90;;;;;;5043992;28;20199;-81
2023/12/07 12:14:27;;;;;;;19.17;17.77;;;3.70;99.90;;;;;;5041939;28;20702;-80
2023/12/07 12:16:55;;;;;;;18.90;17.50;;;3.70;99.90;;;;;;5051018;28;20643;-80
2023/12/07 12:19:23;;;;;;;19.47;18.07;;;3.70;99.90;;;;;;5052998;28;20198;-80
2023/12/07 12:21:50;;;;;;;18.17;16.87;;;3.70;99.90;;;;;;5046971;28;20203;-80
2023/12/07 12:24:17;;;;;;;18.00;16.60;;;3.80;99.90;;;;;;5057152;28;20598;-80
2023/12/07 12:26:45;;;;;;;17.67;16.30;;;3.80;99.90;;;;;;5058754;28;20197;-81
2023/12/07 12:29:15;;;;;;;17.07;15.80;;;3.90;99.90;;;;;;5056967;28;20194;-80
2023/12/07 12:31:42;;;;;;;16.60;15.40;;;3.90;99.90;;;;;;5051871;28;20198;-81
2023/12/07 12:34:11;;;;;;;17.65;16.45;;;4.00;99.90;;;;;;5041211;28;20816;-81
2023/12/07 12:36:37;;;;;;;16.43;15.23;;;4.10;99.90;;;;;;5047546;28;20642;-81
2023/12/07 12:39:05;;;;;;;14.57;13.67;;;4.20;99.90;;;;;;5043048;28;20223;-80
2023/12/07 12:41:32;;;;;;;13.83;13.03;;;4.20;99.90;;;;;;5042699;28;20210;-80
2023/12/07 12:44:01;;;;;;;13.63;12.83;;;4.20;99.90;;;;;;5045520;28;20227;-81
2023/12/07 12:46:28;;;;;;;13.60;12.80;;;4.20;99.90;;;;;;5056745;28;20195;-80
2023/12/07 12:48:56;;;;;;;13.50;12.60;;;4.20;99.90;;;;;;5053445;28;20203;-80
2023/12/07 12:51:26;;;;;;;13.50;12.70;;;4.20;99.90;;;;;;5037265;28;20727;-81
2023/12/07 12:53:53;;;;;;;13.50;12.70;;;4.30;99.90;;;;;;5054658;28;20188;-81
2023/12/07 12:56:21;;;;;;;13.57;12.57;;;4.30;99.90;;;;;;5043146;28;20210;-81
2023/12/07 12:58:48;;;;;;;12.57;11.87;;;4.40;99.90;;;;;;5041513;28;20239;-81
2023/12/07 13:01:17;;;;;;;12.70;11.90;;;4.40;99.90;;;;;;5034043;28;20245;-80
2023/12/07 13:03:45;;;;;;;12.90;12.20;;;4.50;99.90;;;;;;5052658;28;20727;-80
2023/12/07 13:06:14;;;;;;;12.87;12.03;;;4.50;99.90;;;;;;5061502;28;20229;-79
2023/12/07 13:08:41;;;;;;;12.77;11.97;;;4.60;99.90;;;;;;5045657;28;20290;-81
2023/12/07 13:11:08;;;;;;;12.97;12.07;;;4.60;99.90;;;;;;5041380;28;20919;-81
2023/12/07 13:13:35;;;;;;;13.37;12.40;;;4.60;99.90;;;;;;5036891;28;20662;-80
2023/12/07 13:16:02;;;;;;;12.77;11.97;;;4.60;99.90;;;;;;5036019;28;20231;-80
2023/12/07 13:18:31;;;;;;;12.63;11.93;;;4.60;99.90;;;;;;5041881;28;20227;-80
2023/12/07 13:20:59;;;;;;;12.87;12.07;;;4.60;99.90;;;;;;5068968;28;20251;-81
2023/12/07 13:23:26;;;;;;;12.47;11.70;;;4.60;99.90;;;;;;5047768;28;20210;-80
2023/12/07 13:25:54;;;;;;;12.33;11.63;;;4.50;99.90;;;;;;5062380;28;20241;-80
2023/12/07 13:28:20;;;;;;;12.97;12.17;;;4.60;99.90;;;;;;5050170;28;20258;-80
2023/12/07 13:30:47;;;;;;;12.53;11.67;;;4.60;99.90;;;;;;5037246;28;20203;-79
2023/12/07 13:33:14;;;;;;;12.83;11.97;;;4.60;99.90;;;;;;5039557;28;20199;-80
2023/12/07 13:35:42;;;;;;;12.20;11.50;;;4.50;99.90;;;;;;5052706;28;20718;-80
2023/12/07 13:38:09;;;;;;;12.17;11.47;;;4.60;99.90;;;;;;5079867;28;20220;-81
2023/12/07 13:40:37;;;;;;;12.70;11.87;;;4.60;99.90;;;;;;5043668;28;20205;-80
2023/12/07 13:43:04;;;;;;;12.87;12.07;;;4.50;99.90;;;;;;5060183;28;20208;-80
2023/12/07 13:45:31;;;;;;;12.70;11.90;;;4.50;99.90;;;;;;5036986;28;20223;-80
2023/12/07 13:51:28;;;;;;;12.27;11.47;;;4.50;99.90;;;;;;5039638;28;20337;-84
2023/12/07 13:53:56;;;;;;;12.40;11.60;;;4.50;99.90;;;;;;5055047;28;20253;-84
2023/12/07 13:56:23;;;;;;;12.67;11.80;;;4.60;99.90;;;;;;5063257;28;20214;-83
2023/12/07 13:58:51;;;;;;;12.03;11.33;;;4.60;99.90;;;;;;5030466;28;20831;-84
2023/12/07 14:01:17;;;;;;;12.00;11.20;;;4.60;99.90;;;;;;5043778;28;20267;-84
2023/12/07 14:03:44;;;;;;;13.03;12.13;;;4.60;99.90;;;;;;5032653;28;20208;-84
2023/12/07 14:06:13;;;;;;;12.27;11.47;;;4.60;99.90;;;;;;5035614;28;20208;-84
2023/12/07 14:08:42;;;;;;;12.90;12.00;;;4.70;99.90;;;;;;5041659;28;20280;-84
2023/12/07 14:11:11;;;;;;;12.27;11.57;;;4.70;99.90;;;;;;5059706;28;20685;-84
2023/12/07 14:13:39;;;;;;;12.73;11.93;;;4.70;99.90;;;;;;5045620;28;20240;-83
2023/12/07 14:16:08;;;;;;;12.50;11.70;;;4.60;99.90;;;;;;5033053;28;20196;-84
2023/12/07 14:18:35;;;;;;;13.13;12.23;;;4.70;99.90;;;;;;5063225;28;20219;-84
2023/12/07 14:21:02;;;;;;;12.07;11.37;;;4.70;99.90;;;;;;5049929;28;20211;-83
2023/12/07 14:23:29;;;;;;;12.30;11.53;;;4.60;99.90;;;;;;5037425;28;20586;-83
2023/12/07 14:25:59;;;;;;;11.90;11.20;;;4.50;99.90;;;;;;5039952;28;20220;-83
2023/12/07 14:28:54;;;;;;;12.20;11.40;;;4.50;99.90;;;;;;5060014;28;20264;-83
2023/12/07 14:31:25;;;;;;;11.90;11.20;;;4.40;99.90;;;;;;5051611;28;20220;-83
2023/12/07 14:33:58;;;;;;;12.10;11.30;;;4.40;99.90;;;;;;5028202;28;20208;-84
2023/12/07 14:36:44;;;;;;;12.50;11.70;;;4.30;99.90;;;;;;5037130;28;20588;-84
2023/12/07 14:39:16;;;;;;;12.57;11.70;;;4.20;99.90;;;;;;5037447;28;20707;-80
2023/12/07 14:42:11;;;;;;;12.00;11.30;;;4.10;99.90;;;;;;5048329;28;20202;-79
2023/12/07 14:44:39;;;;;;;12.20;11.50;;;4.00;99.90;;;;;;5029723;28;20216;-80
2023/12/07 14:47:07;;;;;;;12.20;11.50;;;4.00;99.90;;;;;;5055051;28;20613;-82
2023/12/07 14:49:33;;;;;;;12.10;11.40;;;3.90;99.90;;;;;;5051397;28;20581;-81
2023/12/07 14:52:00;;;;;;;12.57;11.67;;;3.80;99.90;;;;;;5037198;28;20200;-82
2023/12/07 14:54:27;;;;;;;12.50;11.80;;;3.80;99.90;;;;;;5037044;28;20269;-81
2023/12/07 14:56:56;;;;;;;13.00;12.30;;;3.70;99.90;;;;;;5034126;28;20253;-80
2023/12/07 14:59:24;;;;;;;12.80;12.07;;;3.60;99.90;;;;;;5028579;28;20222;-80
2023/12/07 15:01:51;;;;;;;12.90;12.10;;;3.50;99.90;;;;;;5052327;28;20243;-80
2023/12/07 15:04:19;;;;;;;13.37;12.57;;;3.50;99.90;;;;;;5029946;28;20314;-80
2023/12/07 15:06:45;;;;;;;13.10;12.20;;;3.40;99.90;;;;;;5039937;28;20206;-80
2023/12/07 15:09:12;;;;;;;13.27;12.37;;;3.30;99.90;;;;;;5050195;28;20198;-81
2023/12/07 15:11:40;;;;;;;14.30;13.43;;;3.20;99.90;;;;;;5035270;28;20667;-79
2023/12/07 15:14:08;;;;;;;13.97;13.07;;;3.10;99.90;;;;;;5035852;28;20604;-79
2023/12/07 15:16:36;;;;;;;13.57;12.77;;;3.00;99.90;;;;;;5032707;28;20200;-79
2023/12/07 15:19:03;;;;;;;14.07;13.03;;;2.90;99.90;;;;;;5039061;28;20241;-80
2023/12/07 15:21:30;;;;;;;13.13;12.33;;;2.80;99.90;;;;;;5060046;28;20201;-79
2023/12/07 15:23:56;;;;;;;13.47;12.67;;;2.80;99.90;;;;;;5042032;28;20652;-79
2023/12/07 15:26:23;;;;;;;13.43;12.53;;;2.80;99.90;;;;;;5056743;28;20192;-79
2023/12/07 15:28:50;;;;;;;13.43;12.43;;;2.70;99.90;;;;;;5054467;28;20195;-79
2023/12/07 15:31:17;;;;;;;13.60;12.70;;;2.70;99.90;;;;;;5047000;28;20195;-78
2023/12/07 15:33:45;;;;;;;14.20;13.20;;;2.70;99.90;;;;;;5049118;28;20692;-79
2023/12/07 15:36:12;;;;;;;14.10;13.00;;;2.70;99.90;;;;;;5033442;28;20204;-80
2023/12/07 15:38:40;;;;;;;13.73;12.63;;;2.70;99.90;;;;;;5034489;28;20627;-79
2023/12/07 15:41:08;;;;;;;13.00;12.00;;;2.70;99.90;;;;;;5034129;28;20203;-79
2023/12/07 15:43:35;;;;;;;13.70;12.70;;;2.70;99.90;;;;;;5031550;28;20741;-79
2023/12/07 15:46:03;;;;;;;13.50;12.60;;;2.80;99.90;;;;;;5035402;28;20221;-79
2023/12/07 15:48:30;;;;;;;14.37;13.40;;;2.80;99.90;;;;;;5030606;28;20203;-79
2023/12/07 15:50:58;;;;;;;13.70;12.80;;;2.80;99.90;;;;;;5035757;28;20203;-79
2023/12/07 15:53:24;;;;;;;13.13;12.23;;;2.80;99.90;;;;;;5056388;28;20195;-82
2023/12/07 15:55:51;;;;;;;13.93;12.93;;;2.80;99.90;;;;;;5052879;28;20725;-82
2023/12/07 15:58:18;;;;;;;13.60;12.70;;;2.70;99.90;;;;;;5046389;28;20218;-83
2023/12/07 16:00:45;;;;;;;14.13;13.13;;;2.70;99.90;;;;;;5031079;28;20199;-82
2023/12/07 16:03:12;;;;;;;13.67;12.67;;;2.70;99.90;;;;;;5035388;28;20210;-81
2023/12/07 16:05:39;;;;;;;13.57;12.67;;;2.60;99.90;;;;;;5024112;28;20625;-82
2023/12/07 16:08:07;;;;;;;14.70;13.60;;;2.50;99.90;;;;;;5044252;28;20676;-81
2023/12/07 16:10:34;;;;;;;14.43;13.27;;;2.40;99.90;;;;;;5029425;28;20211;-81
2023/12/07 16:13:01;;;;;;;14.50;13.50;;;2.30;99.90;;;;;;5034974;28;20218;-79
2023/12/07 16:15:28;;;;;;;14.80;13.80;;;2.20;99.90;;;;;;5044782;28;20223;-79
2023/12/07 16:17:55;;;;;;;14.70;13.57;;;2.20;99.90;;;;;;5046541;28;20203;-80
2023/12/07 16:20:22;;;;;;;14.40;13.33;;;2.10;99.90;;;;;;5047697;28;20192;-79
2023/12/07 16:22:49;;;;;;;14.17;13.07;;;2.00;99.90;;;;;;5046338;28;20577;-79
2023/12/07 16:25:17;;;;;;;13.90;12.83;;;2.00;99.90;;;;;;5034337;28;20223;-79
2023/12/07 16:27:43;;;;;;;14.30;13.30;;;1.90;99.90;;;;;;5028195;28;20207;-83
2023/12/07 16:30:14;;;;;;;14.00;13.00;;;1.90;99.90;;;;;;5032577;28;20442;-82
2023/12/07 16:32:42;;;;;;;14.23;13.13;;;2.00;99.90;;;;;;5035167;28;20290;-82
2023/12/07 16:35:11;;;;;;;14.33;13.23;;;1.90;99.90;;;;;;5051669;28;20468;-79
2023/12/07 16:37:38;;;;;;;14.70;13.60;;;1.80;99.90;;;;;;5042638;28;20557;-78
2023/12/07 16:40:07;;;;;;;13.73;12.73;;;1.70;99.90;;;;;;5031050;28;20215;-77
2023/12/07 16:42:37;;;;;;;14.37;13.37;;;1.70;99.90;;;;;;5042241;28;20190;-78
2023/12/07 16:45:04;;;;;;;14.93;13.70;;;1.60;99.90;;;;;;5053424;28;20214;-78
2023/12/07 16:47:31;;;;;;;14.63;13.57;;;1.70;99.90;;;;;;5040128;28;20263;-79
2023/12/07 16:49:59;;;;;;;14.03;13.03;;;1.70;99.90;;;;;;5062309;28;20200;-78
2023/12/07 16:52:26;;;;;;;15.00;13.90;;;1.70;99.90;;;;;;5058364;28;20281;-78
2023/12/07 16:54:54;;;;;;;15.30;14.03;;;1.70;99.90;;;;;;5042015;28;20230;-82
2023/12/07 16:57:21;;;;;;;15.00;13.90;;;1.70;99.90;;;;;;5040542;28;20203;-82
2023/12/07 16:59:49;;;;;;;14.67;13.57;;;1.70;99.90;;;;;;5047908;28;20222;-85
2023/12/07 17:02:16;;;;;;;13.67;12.60;;;1.80;99.90;;;;;;5035728;28;20659;-82
2023/12/07 17:04:43;;;;;;;14.50;13.43;;;1.70;99.90;;;;;;5046236;28;20290;-82
2023/12/07 17:07:10;;;;;;;15.67;14.40;;;1.70;99.90;;;;;;5031614;28;20442;-81
2023/12/07 17:09:37;;;;;;;14.60;13.40;;;1.70;99.90;;;;;;5043781;28;20984;-81
2023/12/07 17:12:04;;;;;;;15.20;14.10;;;1.80;99.90;;;;;;5053418;28;20195;-81
2023/12/07 17:14:31;;;;;;;14.80;13.60;;;1.80;99.90;;;;;;5045603;28;20215;-82
2023/12/07 17:16:59;;;;;;;15.13;13.97;;;1.80;99.90;;;;;;5049813;28;20209;-78
2023/12/07 17:19:26;;;;;;;14.80;13.70;;;1.90;99.90;;;;;;5059634;28;20470;-79
2023/12/07 17:21:53;;;;;;;15.13;13.93;;;1.90;99.90;;;;;;5060835;28;21043;-78
2023/12/07 17:24:21;;;;;;;15.50;14.33;;;1.90;99.90;;;;;;5064158;28;20467;-78
2023/12/07 17:26:48;;;;;;;15.07;14.07;;;2.00;99.90;;;;;;5022271;28;20188;-79
2023/12/07 17:29:15;;;;;;;14.53;13.47;;;2.00;99.90;;;;;;5029544;28;20671;-81
2023/12/07 17:31:42;;;;;;;15.67;14.57;;;2.10;99.90;;;;;;5034961;28;20222;-77
2023/12/07 17:34:10;;;;;;;15.20;14.17;;;2.10;99.90;;;;;;5065272;28;20278;-78
2023/12/07 17:36:37;;;;;;;15.17;14.07;;;2.20;99.90;;;;;;5058295;28;20663;-78
2023/12/07 17:39:04;;;;;;;15.33;13.97;;;2.20;99.90;;;;;;5044550;28;20846;-79
2023/12/07 17:41:31;;;;;;;14.13;13.13;;;2.20;99.90;;;;;;5035641;28;20215;-78
2023/12/07 17:43:58;;;;;;;14.77;13.47;;;2.20;99.90;;;;;;5046211;28;20191;-79
2023/12/07 17:46:24;;;;;;;14.10;13.00;;;2.30;99.90;;;;;;5043452;28;20234;-78
2023/12/07 17:48:51;;;;;;;14.97;13.77;;;2.30;99.90;;;;;;5041842;28;20622;-78
2023/12/07 17:51:19;;;;;;;14.40;13.20;;;2.30;99.90;;;;;;5053276;28;20254;-79
2023/12/07 17:53:46;;;;;;;13.83;12.73;;;2.30;99.90;;;;;;5043360;28;20253;-80
2023/12/07 17:56:13;;;;;;;14.90;13.50;;;2.30;99.90;;;;;;5060555;28;20207;-78